Time,TemperatureF,DewpointF,PressureIn,WindDirection,WindDirectionDegrees,WindSpeedMPH,WindSpeedGustMPH,Humidity,HourlyPrecipIn,Conditions,Clouds,dailyrainin,SoftwareType,DateUTC
2013-01-03 00:02:00,34.0,27.0,-100.00,NE,49,5.0,8.0,76,-99.99,,,-99.99,,2013-01-03 08:02:00,
2013-01-03 00:11:00,33.0,26.0,-100.00,ENE,59,5.0,7.0,76,-99.99,,,-99.99,,2013-01-03 08:11:00,
2013-01-03 00:22:00,33.0,27.0,-100.00,NE,40,5.0,8.0,77,-99.99,,,-99.99,,2013-01-03 08:22:00,
2013-01-03 00:32:00,33.0,27.0,-100.00,NE,56,4.0,6.0,77,-99.99,,,-99.99,,2013-01-03 08:32:00,
2013-01-03 00:42:00,33.0,26.0,-100.00,ENE,58,6.0,8.0,76,-99.99,,,-99.99,,2013-01-03 08:42:00,
2013-01-03 00:52:00,33.0,27.0,-100.00,NE,49,5.0,8.0,77,-99.99,,,-99.99,,2013-01-03 08:52:00,
2013-01-03 01:02:00,33.0,26.0,-100.00,ENE,67,5.0,8.0,76,-99.99,,,-99.99,,2013-01-03 09:02:00,
2013-01-03 01:11:00,33.0,27.0,-100.00,NE,49,7.0,9.0,77,-99.99,,,-99.99,,2013-01-03 09:11:00,
2013-01-03 01:22:00,32.0,26.0,-100.00,NE,55,5.0,8.0,79,-99.99,,,-99.99,,2013-01-03 09:22:00,
2013-01-03 01:33:00,33.0,27.0,-100.00,NE,40,5.0,8.0,77,-99.99,,,-99.99,,2013-01-03 09:33:00,
2013-01-03 01:52:00,34.0,27.0,-100.00,NE,46,3.0,6.0,75,-99.99,,,-99.99,,2013-01-03 09:52:00,
2013-01-03 02:02:00,33.0,26.0,-100.00,ENE,71,5.0,8.0,76,-99.99,,,-99.99,,2013-01-03 10:02:00,
2013-01-03 02:12:00,32.0,26.0,-100.00,NE,52,6.0,8.0,78,-99.99,,,-99.99,,2013-01-03 10:12:00,
2013-01-03 02:22:00,32.0,26.0,-100.00,NE,49,6.0,8.0,78,-99.99,,,-99.99,,2013-01-03 10:22:00,
2013-01-03 02:32:00,33.0,27.0,-100.00,NE,52,6.0,9.0,77,-99.99,,,-99.99,,2013-01-03 10:32:00,
2013-01-03 02:42:00,33.0,26.0,-100.00,ENE,65,5.0,8.0,75,-99.99,,,-99.99,,2013-01-03 10:42:00,
2013-01-03 02:52:00,33.0,26.0,-100.00,NE,48,5.0,9.0,75,-99.99,,,-99.99,,2013-01-03 10:52:00,
2013-01-03 03:02:00,33.0,26.0,-100.00,NE,34,4.0,8.0,74,-99.99,,,-99.99,,2013-01-03 11:02:00,
2013-01-03 03:11:00,35.0,26.0,-100.00,NE,53,5.0,9.0,68,-99.99,,,-99.99,,2013-01-03 11:11:00,
2013-01-03 03:22:00,34.0,25.0,-100.00,NE,50,4.0,6.0,70,-99.99,,,-99.99,,2013-01-03 11:22:00,
2013-01-03 03:32:00,33.0,25.0,-100.00,ENE,65,4.0,7.0,72,-99.99,,,-99.99,,2013-01-03 11:32:00,
2013-01-03 03:42:00,33.0,26.0,-100.00,NE,51,6.0,9.0,74,-99.99,,,-99.99,,2013-01-03 11:42:00,
2013-01-03 03:52:00,33.0,26.0,-100.00,NE,49,5.0,8.0,75,-99.99,,,-99.99,,2013-01-03 11:52:00,
2013-01-03 04:02:00,33.0,26.0,-100.00,NE,49,5.0,8.0,75,-99.99,,,-99.99,,2013-01-03 12:02:00,
2013-01-03 04:12:00,33.0,26.0,-100.00,NE,46,5.0,8.0,74,-99.99,,,-99.99,,2013-01-03 12:12:00,
2013-01-03 04:22:00,34.0,26.0,-100.00,ENE,61,3.0,6.0,72,-99.99,,,-99.99,,2013-01-03 12:22:00,
2013-01-03 04:32:00,33.0,25.0,-100.00,NE,56,3.0,7.0,72,-99.99,,,-99.99,,2013-01-03 12:32:00,
2013-01-03 04:42:00,34.0,26.0,-100.00,NE,46,5.0,8.0,71,-99.99,,,-99.99,,2013-01-03 12:42:00,
2013-01-03 04:52:00,33.0,26.0,-100.00,NE,46,6.0,8.0,74,-99.99,,,-99.99,,2013-01-03 12:52:00,
2013-01-03 05:02:00,33.0,26.0,-100.00,NE,46,6.0,8.0,74,-99.99,,,-99.99,,2013-01-03 13:02:00,
2013-01-03 05:12:00,34.0,26.0,-100.00,NE,54,3.0,6.0,72,-99.99,,,-99.99,,2013-01-03 13:12:00,
2013-01-03 05:22:00,33.0,25.0,-100.00,ENE,68,4.0,8.0,72,-99.99,,,-99.99,,2013-01-03 13:22:00,
2013-01-03 05:32:00,33.0,25.0,-100.00,NE,55,7.0,9.0,72,-99.99,,,-99.99,,2013-01-03 13:32:00,
2013-01-03 05:42:00,34.0,26.0,-100.00,ENE,57,7.0,9.0,71,-99.99,,,-99.99,,2013-01-03 13:42:00,
2013-01-03 05:52:00,33.0,25.0,-100.00,NE,51,6.0,9.0,73,-99.99,,,-99.99,,2013-01-03 13:52:00,
2013-01-03 06:02:00,33.0,26.0,-100.00,ENE,58,6.0,8.0,74,-99.99,,,-99.99,,2013-01-03 14:02:00,
2013-01-03 06:12:00,32.0,25.0,-100.00,NE,50,6.0,9.0,74,-99.99,,,-99.99,,2013-01-03 14:12:00,
2013-01-03 06:22:00,32.0,25.0,-100.00,NE,49,8.0,10.0,74,-99.99,,,-99.99,,2013-01-03 14:22:00,
2013-01-03 06:32:00,33.0,25.0,-100.00,NE,54,7.0,10.0,72,-99.99,,,-99.99,,2013-01-03 14:32:00,
2013-01-03 06:53:00,33.0,25.0,-100.00,NE,41,4.0,8.0,72,-99.99,,,-99.99,,2013-01-03 14:53:00,
2013-01-03 07:02:00,33.0,25.0,-100.00,NNE,32,6.0,8.0,72,-99.99,,,-99.99,,2013-01-03 15:02:00,
2013-01-03 07:12:00,33.0,25.0,-100.00,ENE,57,6.0,8.0,71,-99.99,,,-99.99,,2013-01-03 15:12:00,
2013-01-03 07:33:00,32.0,25.0,-100.00,NE,50,6.0,9.0,75,-99.99,,,-99.99,,2013-01-03 15:33:00,
2013-01-03 07:53:00,32.0,25.0,-100.00,NE,45,7.0,10.0,74,-99.99,,,-99.99,,2013-01-03 15:53:00,
2013-01-03 08:02:00,33.0,25.0,-100.00,NE,52,6.0,8.0,73,-99.99,,,-99.99,,2013-01-03 16:02:00,
2013-01-03 08:12:00,33.0,25.0,-100.00,NE,41,5.0,8.0,71,-99.99,,,-99.99,,2013-01-03 16:12:00,
2013-01-03 08:33:00,37.0,25.0,-100.00,NE,55,6.0,8.0,62,-99.99,,,-99.99,,2013-01-03 16:33:00,
2013-01-03 08:52:00,40.0,26.0,-100.00,NE,56,4.0,7.0,58,-99.99,,,-99.99,,2013-01-03 16:52:00,
2013-01-03 09:02:00,42.0,26.0,-100.00,ENE,59,4.0,7.0,52,-99.99,,,-99.99,,2013-01-03 17:02:00,
2013-01-03 09:12:00,44.0,26.0,-100.00,ENE,74,3.0,5.0,49,-99.99,,,-99.99,,2013-01-03 17:12:00,
2013-01-03 09:22:00,46.0,26.0,-100.00,ENE,63,3.0,5.0,46,-99.99,,,-99.99,,2013-01-03 17:22:00,
2013-01-03 09:32:00,50.0,30.0,-100.00,NE,52,1.0,3.0,46,-99.99,,,-99.99,,2013-01-03 17:32:00,
2013-01-03 09:42:00,53.0,29.0,-100.00,SE,136,1.0,3.0,40,-99.99,,,-99.99,,2013-01-03 17:42:00,
2013-01-03 09:52:00,56.0,29.0,-100.00,South,179,3.0,6.0,35,-99.99,,,-99.99,,2013-01-03 17:52:00,
2013-01-03 10:02:00,56.0,27.0,-100.00,SW,215,3.0,5.0,33,-99.99,,,-99.99,,2013-01-03 18:02:00,
2013-01-03 10:12:00,57.0,29.0,-100.00,SSW,206,3.0,7.0,34,-99.99,,,-99.99,,2013-01-03 18:12:00,
2013-01-03 10:22:00,57.0,31.0,-100.00,SSW,200,4.0,7.0,37,-99.99,,,-99.99,,2013-01-03 18:22:00,
2013-01-03 10:33:00,58.0,33.0,-100.00,South,190,3.0,5.0,38,-99.99,,,-99.99,,2013-01-03 18:33:00,
2013-01-03 10:42:00,59.0,31.0,-100.00,SSW,192,2.0,4.0,35,-99.99,,,-99.99,,2013-01-03 18:42:00,
2013-01-03 10:53:00,61.0,32.0,-100.00,SSW,197,2.0,4.0,33,-99.99,,,-99.99,,2013-01-03 18:53:00,
2013-01-03 11:02:00,61.0,31.0,-100.00,SSW,199,2.0,5.0,32,-99.99,,,-99.99,,2013-01-03 19:02:00,
2013-01-03 11:12:00,63.0,30.0,-100.00,SW,222,1.0,4.0,29,-99.99,,,-99.99,,2013-01-03 19:12:00,
2013-01-03 11:55:00,66.0,29.0,-100.00,SSW,211,3.0,6.0,25,-99.99,,,-99.99,,2013-01-03 19:55:00,
2013-01-03 12:02:00,67.0,25.0,-100.00,South,184,4.0,9.0,20,-99.99,,,-99.99,,2013-01-03 20:02:00,
2013-01-03 12:12:00,69.0,16.0,-100.00,NE,47,7.0,11.0,13,-99.99,,,-99.99,,2013-01-03 20:12:00,
2013-01-03 12:22:00,69.0,12.0,-100.00,NE,44,7.0,13.0,11,-99.99,,,-99.99,,2013-01-03 20:22:00,
2013-01-03 12:33:00,69.0,12.0,-100.00,ENE,70,7.0,12.0,11,-99.99,,,-99.99,,2013-01-03 20:33:00,
2013-01-03 12:42:00,70.0,13.0,-100.00,ENE,65,6.0,10.0,11,-99.99,,,-99.99,,2013-01-03 20:42:00,
2013-01-03 12:53:00,70.0,11.0,-100.00,ENE,66,7.0,11.0,10,-99.99,,,-99.99,,2013-01-03 20:53:00,
2013-01-03 13:02:00,70.0,9.0,-100.00,ENE,62,9.0,18.0,9,-99.99,,,-99.99,,2013-01-03 21:02:00,
2013-01-03 13:12:00,70.0,9.0,-100.00,NE,55,8.0,14.0,9,-99.99,,,-99.99,,2013-01-03 21:12:00,
2013-01-03 13:22:00,71.0,12.0,-100.00,NE,45,6.0,10.0,10,-99.99,,,-99.99,,2013-01-03 21:22:00,
2013-01-03 13:34:00,71.0,9.0,-100.00,North,4,6.0,12.0,9,-99.99,,,-99.99,,2013-01-03 21:34:00,
2013-01-03 13:46:00,67.0,41.0,-100.00,SW,223,7.0,13.0,38,-99.99,,,-99.99,,2013-01-03 21:46:00,
2013-01-03 13:52:00,67.0,41.0,-100.00,SW,223,7.0,13.0,38,-99.99,,,-99.99,,2013-01-03 21:52:00,
2013-01-03 14:02:00,61.0,46.0,-100.00,SW,218,8.0,12.0,58,-99.99,,,-99.99,,2013-01-03 22:02:00,
2013-01-03 14:12:00,61.0,46.0,-100.00,SW,220,8.0,13.0,58,-99.99,,,-99.99,,2013-01-03 22:12:00,
2013-01-03 14:22:00,61.0,46.0,-100.00,SW,220,8.0,12.0,57,-99.99,,,-99.99,,2013-01-03 22:22:00,
2013-01-03 14:32:00,61.0,44.0,-100.00,SW,227,7.0,11.0,54,-99.99,,,-99.99,,2013-01-03 22:32:00,
2013-01-03 14:42:00,61.0,45.0,-100.00,SW,223,7.0,11.0,55,-99.99,,,-99.99,,2013-01-03 22:42:00,
2013-01-03 14:52:00,61.0,46.0,-100.00,SW,232,7.0,10.0,57,-99.99,,,-99.99,,2013-01-03 22:52:00,
2013-01-03 15:02:00,61.0,47.0,-100.00,SW,234,8.0,11.0,60,-99.99,,,-99.99,,2013-01-03 23:02:00,
2013-01-03 15:12:00,60.0,45.0,-100.00,WSW,237,6.0,10.0,58,-99.99,,,-99.99,,2013-01-03 23:12:00,
2013-01-03 15:22:00,61.0,46.0,-100.00,SW,236,6.0,9.0,58,-99.99,,,-99.99,,2013-01-03 23:22:00,
2013-01-03 15:32:00,61.0,42.0,-100.00,SW,227,5.0,7.0,49,-99.99,,,-99.99,,2013-01-03 23:32:00,
2013-01-03 15:42:00,61.0,39.0,-100.00,SW,230,4.0,6.0,44,-99.99,,,-99.99,,2013-01-03 23:42:00,
2013-01-03 15:52:00,62.0,39.0,-100.00,SSW,204,3.0,5.0,43,-99.99,,,-99.99,,2013-01-03 23:52:00,
2013-01-03 16:02:00,62.0,35.0,-100.00,SW,230,3.0,5.0,36,-99.99,,,-99.99,,2013-01-04 00:02:00,
2013-01-03 16:12:00,63.0,33.0,-100.00,SSW,209,3.0,4.0,32,-99.99,,,-99.99,,2013-01-04 00:12:00,
2013-01-03 16:22:00,63.0,32.0,-100.00,SSW,204,2.0,3.0,31,-99.99,,,-99.99,,2013-01-04 00:22:00,
2013-01-03 16:32:00,64.0,35.0,-100.00,SSW,195,1.0,3.0,34,-99.99,,,-99.99,,2013-01-04 00:32:00,
2013-01-03 16:42:00,64.0,34.0,-100.00,SSW,196,1.0,2.0,32,-99.99,,,-99.99,,2013-01-04 00:42:00,
2013-01-03 16:52:00,63.0,33.0,-100.00,South,184,1.0,2.0,32,-99.99,,,-99.99,,2013-01-04 00:52:00,
2013-01-03 17:02:00,63.0,35.0,-100.00,NE,48,1.0,2.0,35,-99.99,,,-99.99,,2013-01-04 01:02:00,
2013-01-03 17:12:00,58.0,35.0,-100.00,NE,48,3.0,5.0,42,-99.99,,,-99.99,,2013-01-04 01:12:00,
2013-01-03 17:22:00,54.0,34.0,-100.00,NE,50,3.0,5.0,46,-99.99,,,-99.99,,2013-01-04 01:22:00,
2013-01-03 17:32:00,52.0,34.0,-100.00,NE,50,4.0,6.0,50,-99.99,,,-99.99,,2013-01-04 01:32:00,
2013-01-03 17:52:00,50.0,34.0,-100.00,NE,44,4.0,6.0,53,-99.99,,,-99.99,,2013-01-04 01:52:00,
2013-01-03 18:02:00,48.0,34.0,-100.00,NE,41,4.0,6.0,58,-99.99,,,-99.99,,2013-01-04 02:02:00,
2013-01-03 18:12:00,46.0,33.0,-100.00,NE,50,5.0,7.0,61,-99.99,,,-99.99,,2013-01-04 02:12:00,
2013-01-03 18:22:00,46.0,34.0,-100.00,NE,49,5.0,7.0,62,-99.99,,,-99.99,,2013-01-04 02:22:00,
2013-01-03 18:32:00,45.0,33.0,-100.00,ENE,62,3.0,6.0,62,-99.99,,,-99.99,,2013-01-04 02:32:00,
2013-01-03 18:52:00,44.0,32.0,-100.00,NE,42,2.0,4.0,63,-99.99,,,-99.99,,2013-01-04 02:52:00,
2013-01-03 19:02:00,44.0,32.0,-100.00,ENE,57,4.0,6.0,62,-99.99,,,-99.99,,2013-01-04 03:02:00,
2013-01-03 19:12:00,43.0,32.0,-100.00,NE,51,6.0,8.0,65,-99.99,,,-99.99,,2013-01-04 03:12:00,
2013-01-03 19:22:00,43.0,32.0,-100.00,NE,47,5.0,7.0,65,-99.99,,,-99.99,,2013-01-04 03:22:00,
2013-01-03 19:32:00,42.0,31.0,-100.00,ENE,60,4.0,7.0,64,-99.99,,,-99.99,,2013-01-04 03:32:00,
2013-01-03 19:52:00,40.0,30.0,-100.00,NE,56,4.0,7.0,68,-99.99,,,-99.99,,2013-01-04 03:52:00,
2013-01-03 20:02:00,40.0,30.0,-100.00,NE,55,6.0,9.0,67,-99.99,,,-99.99,,2013-01-04 04:02:00,
2013-01-03 20:12:00,40.0,30.0,-100.00,NE,43,5.0,8.0,66,-99.99,,,-99.99,,2013-01-04 04:12:00,
2013-01-03 20:22:00,39.0,29.0,-100.00,NE,55,5.0,8.0,68,-99.99,,,-99.99,,2013-01-04 04:22:00,
2013-01-03 20:32:00,37.0,28.0,-100.00,NE,46,6.0,8.0,70,-99.99,,,-99.99,,2013-01-04 04:32:00,
2013-01-03 20:52:00,37.0,28.0,-100.00,NE,49,6.0,8.0,71,-99.99,,,-99.99,,2013-01-04 04:52:00,
2013-01-03 21:03:00,37.0,28.0,-100.00,NE,49,6.0,8.0,71,-99.99,,,-99.99,,2013-01-04 05:03:00,
2013-01-03 21:12:00,36.0,28.0,-100.00,NE,53,5.0,7.0,72,-99.99,,,-99.99,,2013-01-04 05:12:00,
2013-01-03 21:22:00,36.0,28.0,-100.00,ENE,57,5.0,7.0,73,-99.99,,,-99.99,,2013-01-04 05:22:00,
2013-01-03 21:33:00,36.0,28.0,-100.00,NE,55,4.0,6.0,71,-99.99,,,-99.99,,2013-01-04 05:33:00,
2013-01-03 21:52:00,35.0,27.0,-100.00,ENE,61,5.0,6.0,72,-99.99,,,-99.99,,2013-01-04 05:52:00,
2013-01-03 22:02:00,35.0,27.0,-100.00,ENE,62,6.0,8.0,72,-99.99,,,-99.99,,2013-01-04 06:02:00,
2013-01-03 22:12:00,35.0,27.0,-100.00,ENE,61,5.0,8.0,73,-99.99,,,-99.99,,2013-01-04 06:12:00,
2013-01-03 22:22:00,34.0,27.0,-100.00,ENE,61,4.0,5.0,74,-99.99,,,-99.99,,2013-01-04 06:22:00,
2013-01-03 22:32:00,34.0,27.0,-100.00,ENE,58,6.0,8.0,74,-99.99,,,-99.99,,2013-01-04 06:32:00,
2013-01-03 22:42:00,34.0,27.0,-100.00,NE,56,4.0,7.0,74,-99.99,,,-99.99,,2013-01-04 06:42:00,
2013-01-03 22:52:00,34.0,27.0,-100.00,ENE,60,4.0,6.0,74,-99.99,,,-99.99,,2013-01-04 06:52:00,
2013-01-03 23:02:00,34.0,27.0,-100.00,ENE,58,6.0,8.0,74,-99.99,,,-99.99,,2013-01-04 07:02:00,
2013-01-03 23:12:00,33.0,26.0,-100.00,ENE,61,5.0,8.0,74,-99.99,,,-99.99,,2013-01-04 07:12:00,
2013-01-03 23:22:00,33.0,25.0,-100.00,ENE,58,5.0,8.0,73,-99.99,,,-99.99,,2013-01-04 07:22:00,
2013-01-03 23:32:00,33.0,25.0,-100.00,ENE,60,5.0,7.0,73,-99.99,,,-99.99,,2013-01-04 07:32:00,
2013-01-03 23:42:00,33.0,26.0,-100.00,ENE,58,6.0,9.0,74,-99.99,,,-99.99,,2013-01-04 07:42:00,
2013-01-03 23:52:00,33.0,25.0,-100.00,NE,53,7.0,9.0,72,-99.99,,,-99.99,,2013-01-04 07:52:00,